createdAt,value
2019-01-15T00:00:33.260Z,58.70
2019-01-15T00:03:01.085Z,58.50
2019-01-15T00:05:28.874Z,58.60
2019-01-15T00:08:01.745Z,58.30
2019-01-15T00:10:29.536Z,58.20
2019-01-15T00:12:57.312Z,58.50
2019-01-15T00:15:25.165Z,58.90
2019-01-15T00:17:52.988Z,58.80
2019-01-15T00:20:20.773Z,58.90
2019-01-15T00:22:48.532Z,59.00
2019-01-15T00:25:16.361Z,59.20
2019-01-15T00:27:44.167Z,59.80
2019-01-15T00:30:14.437Z,59.90
2019-01-15T00:32:42.232Z,60.20
2019-01-15T00:35:10.183Z,60.40
2019-01-15T00:37:37.979Z,60.20
2019-01-15T00:40:10.437Z,60.10
2019-01-15T00:42:38.231Z,60.40
2019-01-15T00:45:07.375Z,60.40
2019-01-15T00:47:54.617Z,60.90
2019-01-15T00:50:22.383Z,61.60
2019-01-15T00:52:50.183Z,61.10
2019-01-15T00:55:17.934Z,61.00
2019-01-15T00:57:45.704Z,61.40
2019-01-15T01:00:21.325Z,61.50
2019-01-15T01:02:49.423Z,61.70
2019-01-15T01:05:17.965Z,61.70
2019-01-15T01:07:45.746Z,61.20
2019-01-15T01:10:14.528Z,62.00
2019-01-15T01:12:42.325Z,62.20
2019-01-15T01:15:12.398Z,62.10
2019-01-15T01:17:40.587Z,62.60
2019-01-15T01:20:10.818Z,62.70
2019-01-15T01:22:38.601Z,62.40
2019-01-15T01:25:09.144Z,62.50
2019-01-15T01:27:36.927Z,62.60
2019-01-15T01:30:09.462Z,62.80
2019-01-15T01:32:37.259Z,63.00
2019-01-15T01:35:05.254Z,63.00
2019-01-15T01:37:33.071Z,62.70
2019-01-15T01:40:00.860Z,63.40
2019-01-15T01:42:29.454Z,63.40
2019-01-15T01:44:57.937Z,63.50
2019-01-15T01:47:25.707Z,63.60
2019-01-15T01:49:53.487Z,64.50
2019-01-15T01:52:21.244Z,64.40
2019-01-15T01:54:49.208Z,65.20
2019-01-15T01:57:16.978Z,65.10
2019-01-15T01:59:44.808Z,65.40
2019-01-15T02:02:12.575Z,65.40
2019-01-15T02:04:40.397Z,65.40
2019-01-15T02:07:08.163Z,65.30
2019-01-15T02:09:35.959Z,65.20
2019-01-15T02:12:03.724Z,65.40
2019-01-15T02:14:31.574Z,65.30
2019-01-15T02:17:04.952Z,65.10
2019-01-15T02:19:32.741Z,65.20
2019-01-15T02:22:00.517Z,65.30
2019-01-15T02:24:28.534Z,65.20
2019-01-15T02:26:57.672Z,65.70
2019-01-15T02:29:25.475Z,65.70
2019-01-15T02:31:53.223Z,66.00
2019-01-15T02:34:21.044Z,66.40
2019-01-15T02:36:58.938Z,66.10
2019-01-15T02:39:26.725Z,65.70
2019-01-15T02:41:54.481Z,65.80
2019-01-15T02:44:22.395Z,66.20
2019-01-15T02:46:50.190Z,66.30
2019-01-15T02:49:18.011Z,65.80
2019-01-15T02:51:45.746Z,66.00
2019-01-15T02:54:13.534Z,66.50
2019-01-15T02:56:56.400Z,65.80
2019-01-15T02:59:24.175Z,65.20
2019-01-15T03:01:51.951Z,65.50
2019-01-15T03:04:19.763Z,65.40
2019-01-15T03:06:47.540Z,65.80
2019-01-15T03:09:15.352Z,65.40
2019-01-15T03:11:43.119Z,65.40
2019-01-15T03:14:10.959Z,65.40
2019-01-15T03:16:38.709Z,65.30
2019-01-15T03:19:06.513Z,65.60
2019-01-15T03:21:34.292Z,65.30
2019-01-15T03:24:02.141Z,65.50
2019-01-15T03:26:32.883Z,65.40
2019-01-15T03:29:00.636Z,65.50
2019-01-15T03:31:28.463Z,65.40
2019-01-15T03:33:56.201Z,65.90
2019-01-15T03:36:23.976Z,65.30
2019-01-15T03:38:51.766Z,66.10
2019-01-15T03:41:19.592Z,66.90
2019-01-15T03:43:47.432Z,66.30
2019-01-15T03:46:15.222Z,66.30
2019-01-15T03:48:43.120Z,65.60
2019-01-15T03:51:10.936Z,65.40
2019-01-15T03:53:38.739Z,65.40
2019-01-15T03:56:06.543Z,65.40
2019-01-15T03:58:44.391Z,66.20
2019-01-15T04:01:12.215Z,66.30
2019-01-15T04:03:39.934Z,66.60
2019-01-15T04:06:07.737Z,66.40
2019-01-15T04:08:40.640Z,66.30
2019-01-15T04:11:08.429Z,66.70
2019-01-15T04:13:36.159Z,66.10
2019-01-15T04:16:04.047Z,67.20
2019-01-15T04:18:31.935Z,66.90
2019-01-15T04:20:59.779Z,67.00
2019-01-15T04:23:27.659Z,67.00
2019-01-15T04:25:55.453Z,67.00
2019-01-15T04:28:23.293Z,67.40
2019-01-15T04:30:51.102Z,67.10
2019-01-15T04:33:18.869Z,66.90
2019-01-15T04:35:46.652Z,67.40
2019-01-15T04:38:24.532Z,67.30
2019-01-15T04:40:52.301Z,67.40
2019-01-15T04:43:20.208Z,67.10
2019-01-15T04:45:47.993Z,67.20
2019-01-15T04:48:15.877Z,67.20
2019-01-15T04:50:43.703Z,67.10
2019-01-15T04:53:11.498Z,67.50
2019-01-15T04:55:39.264Z,67.60
2019-01-15T04:58:12.194Z,67.50
2019-01-15T05:00:39.969Z,67.30
2019-01-15T05:03:10.420Z,67.80
2019-01-15T05:05:38.193Z,67.60
2019-01-15T05:08:16.165Z,67.60
2019-01-15T05:10:43.986Z,67.20
2019-01-15T05:13:11.742Z,67.90
2019-01-15T05:15:39.556Z,67.60
2019-01-15T05:18:07.318Z,67.80
2019-01-15T05:20:35.086Z,68.00
2019-01-15T05:23:22.328Z,67.70
2019-01-15T05:25:50.517Z,68.40
2019-01-15T05:28:18.513Z,67.60
2019-01-15T05:30:46.314Z,67.80
2019-01-15T05:33:14.709Z,67.70
2019-01-15T05:35:42.520Z,67.80
2019-01-15T05:38:15.530Z,67.20
2019-01-15T05:40:43.302Z,67.20
2019-01-15T05:43:11.080Z,67.50
2019-01-15T05:45:42.014Z,67.20
2019-01-15T05:48:17.471Z,67.00
2019-01-15T05:50:52.320Z,66.50
2019-01-15T05:53:20.393Z,66.70
2019-01-15T05:55:48.234Z,66.80
2019-01-15T05:58:15.996Z,66.20
2019-01-15T06:00:43.821Z,66.00
2019-01-15T06:03:11.638Z,66.60
2019-01-15T06:05:39.608Z,65.70
2019-01-15T06:08:22.460Z,65.80
2019-01-15T06:10:50.243Z,66.30
2019-01-15T06:13:18.049Z,66.40
2019-01-15T06:15:45.848Z,66.80
2019-01-15T06:18:13.711Z,66.80
2019-01-15T06:20:41.476Z,67.00
2019-01-15T06:23:09.244Z,65.40
2019-01-15T06:25:37.036Z,66.60
2019-01-15T06:28:04.851Z,65.90
2019-01-15T06:30:41.616Z,66.20
2019-01-15T06:33:11.124Z,66.10
2019-01-15T06:35:38.923Z,66.70
2019-01-15T06:38:06.753Z,66.20
2019-01-15T06:40:34.544Z,66.20
2019-01-15T06:43:03.830Z,66.80
2019-01-15T06:45:32.609Z,66.20
2019-01-15T06:48:00.650Z,66.00
2019-01-15T06:50:28.436Z,66.50
2019-01-15T06:52:56.268Z,66.80
2019-01-15T06:55:24.480Z,66.50
2019-01-15T06:57:52.561Z,66.60
2019-01-15T07:00:23.549Z,66.50
2019-01-15T07:02:51.429Z,66.50
2019-01-15T07:05:19.803Z,65.60
2019-01-15T07:07:47.612Z,65.60
2019-01-15T07:10:27.014Z,66.10
2019-01-15T07:12:54.820Z,66.00
2019-01-15T07:15:22.732Z,66.00
2019-01-15T07:18:05.695Z,66.00
2019-01-15T07:20:33.524Z,66.70
2019-01-15T07:23:02.519Z,66.30
2019-01-15T07:25:32.889Z,66.90
2019-01-15T07:28:08.748Z,67.50
2019-01-15T07:30:41.693Z,66.60
2019-01-15T07:33:09.728Z,67.00
2019-01-15T07:35:37.620Z,66.90
2019-01-15T07:38:05.445Z,66.80
2019-01-15T07:40:33.258Z,66.90
2019-01-15T07:43:01.053Z,66.80
2019-01-15T07:45:28.852Z,67.00
2019-01-15T07:47:57.755Z,67.20
2019-01-15T07:50:25.516Z,66.80
2019-01-15T07:52:53.457Z,67.30
2019-01-15T07:55:21.301Z,67.10
2019-01-15T07:57:49.223Z,67.50
2019-01-15T08:00:18.832Z,67.20
2019-01-15T08:02:47.526Z,67.40
2019-01-15T08:05:17.415Z,67.30
2019-01-15T08:08:02.435Z,67.20
2019-01-15T08:10:30.200Z,67.00
2019-01-15T08:12:58.022Z,67.40
2019-01-15T08:15:26.489Z,67.20
2019-01-15T08:18:24.814Z,67.70
2019-01-15T08:20:52.676Z,67.60
2019-01-15T08:23:20.505Z,67.40
2019-01-15T08:25:48.298Z,67.20
2019-01-15T08:28:16.159Z,67.00
2019-01-15T08:30:43.957Z,66.20
2019-01-15T08:33:11.828Z,66.40
2019-01-15T08:35:39.572Z,65.70
2019-01-15T08:38:07.390Z,64.20
2019-01-15T08:40:35.200Z,64.00
2019-01-15T08:43:03.005Z,64.40
2019-01-15T08:45:30.807Z,64.40
2019-01-15T08:48:18.864Z,65.70
2019-01-15T08:50:48.900Z,64.30
2019-01-15T08:53:19.742Z,64.90
2019-01-15T08:55:49.421Z,65.00
2019-01-15T08:58:22.255Z,64.40
2019-01-15T09:00:50.054Z,64.00
2019-01-15T09:03:17.910Z,63.80
2019-01-15T09:05:45.760Z,63.90
2019-01-15T09:08:13.565Z,64.80
2019-01-15T09:10:41.366Z,64.50
2019-01-15T09:13:09.139Z,64.40
2019-01-15T09:15:36.892Z,64.50
2019-01-15T09:18:05.630Z,64.80
2019-01-15T09:20:33.428Z,64.80
2019-01-15T09:23:01.187Z,65.80
2019-01-15T09:25:29.025Z,65.90
2019-01-15T09:27:56.903Z,65.00
2019-01-15T09:30:24.678Z,65.60
2019-01-15T09:32:55.523Z,65.70
2019-01-15T09:35:23.307Z,65.30
2019-01-15T09:37:56.706Z,64.80
2019-01-15T09:40:24.621Z,63.90
2019-01-15T09:42:52.506Z,63.60
2019-01-15T09:45:22.880Z,64.40
2019-01-15T09:48:11.054Z,63.50
2019-01-15T09:50:38.836Z,63.80
2019-01-15T09:53:07.576Z,64.00
2019-01-15T09:55:35.558Z,63.20
2019-01-15T09:58:04.825Z,62.80
2019-01-15T10:00:32.964Z,62.60
2019-01-15T10:03:00.762Z,62.50
2019-01-15T10:05:28.580Z,62.40
2019-01-15T10:07:56.360Z,62.10
2019-01-15T10:10:24.185Z,61.50
2019-01-15T10:12:51.995Z,61.20
2019-01-15T10:15:19.947Z,60.30
2019-01-15T10:17:47.737Z,60.40
2019-01-15T10:20:16.191Z,59.20
2019-01-15T10:22:44.598Z,59.50
2019-01-15T10:25:15.956Z,59.20
2019-01-15T10:28:15.333Z,59.90
2019-01-15T10:31:48.525Z,59.70
2019-01-15T10:34:26.559Z,60.40
2019-01-15T10:36:52.834Z,60.40
2019-01-15T10:39:20.777Z,60.50
2019-01-15T10:41:48.672Z,60.80
2019-01-15T10:44:16.548Z,61.40
2019-01-15T10:46:44.385Z,60.80
2019-01-15T10:49:12.215Z,60.80
2019-01-15T10:51:39.972Z,61.20
2019-01-15T10:54:07.825Z,60.60
2019-01-15T10:56:45.673Z,60.50
2019-01-15T10:59:13.473Z,60.20
2019-01-15T11:01:41.296Z,60.50
2019-01-15T11:04:09.092Z,61.10
2019-01-15T11:06:37.000Z,60.80
2019-01-15T11:09:08.279Z,60.50
2019-01-15T11:11:36.069Z,60.60
2019-01-15T11:14:04.223Z,60.20
2019-01-15T11:16:42.234Z,60.80
2019-01-15T11:19:10.070Z,60.80
2019-01-15T11:21:37.790Z,60.80
2019-01-15T11:24:05.655Z,60.80
2019-01-15T11:26:33.438Z,61.60
2019-01-15T11:29:01.252Z,62.00
2019-01-15T11:31:29.047Z,61.10
2019-01-15T11:33:56.849Z,61.20
2019-01-15T11:36:24.668Z,61.30
2019-01-15T11:38:52.481Z,61.10
2019-01-15T11:41:20.283Z,61.50
2019-01-15T11:43:48.107Z,60.50
2019-01-15T11:46:15.896Z,60.50
2019-01-15T11:48:43.901Z,60.10
2019-01-15T11:51:11.708Z,60.40
2019-01-15T11:53:39.575Z,61.00
2019-01-15T11:56:07.418Z,60.50
2019-01-15T11:58:35.671Z,60.80
2019-01-15T12:01:23.082Z,61.00
2019-01-15T12:04:10.429Z,60.00
2019-01-15T12:06:50.002Z,61.20
2019-01-15T12:09:40.431Z,60.40
2019-01-15T12:12:25.679Z,60.50
2019-01-15T12:15:21.971Z,60.50
2019-01-15T12:18:18.277Z,60.20
2019-01-15T12:21:14.912Z,59.80
2019-01-15T12:24:05.372Z,59.40
2019-01-15T12:27:04.834Z,59.30
2019-01-15T12:29:51.105Z,59.40
2019-01-15T12:32:41.724Z,58.70
2019-01-15T12:35:35.454Z,58.90
2019-01-15T12:38:28.856Z,58.80
2019-01-15T12:41:16.228Z,58.50
2019-01-15T12:44:21.965Z,59.30
2019-01-15T12:47:05.978Z,59.10
2019-01-15T12:49:51.891Z,59.40
2019-01-15T12:52:34.760Z,59.30
2019-01-15T12:55:21.421Z,59.40
2019-01-15T12:58:09.060Z,59.40
2019-01-15T13:00:49.496Z,58.70
2019-01-15T13:03:43.218Z,58.80
2019-01-15T13:06:33.454Z,58.20
2019-01-15T13:09:20.243Z,58.80
2019-01-15T13:12:13.511Z,58.20
2019-01-15T13:14:51.510Z,58.50
2019-01-15T13:17:42.008Z,58.00
2019-01-15T13:20:21.687Z,58.00
2019-01-15T13:23:02.952Z,57.20
2019-01-15T13:25:53.362Z,57.70
2019-01-15T13:28:30.629Z,58.00
2019-01-15T13:31:30.212Z,58.00
2019-01-15T13:34:17.583Z,58.00
2019-01-15T13:37:10.751Z,57.90
2019-01-15T13:39:58.092Z,57.90
2019-01-15T13:42:44.132Z,58.00
2019-01-15T13:45:41.557Z,58.00
2019-01-15T13:48:28.728Z,57.90
2019-01-15T13:51:25.163Z,57.90
2019-01-15T13:54:12.528Z,57.90
2019-01-15T13:56:51.111Z,58.50
2019-01-15T13:59:37.073Z,58.30
2019-01-15T14:02:36.428Z,58.80
2019-01-15T14:05:31.214Z,59.40
2019-01-15T14:08:24.630Z,59.40
2019-01-15T14:11:17.777Z,59.70
2019-01-15T14:14:03.763Z,60.00
2019-01-15T14:16:56.364Z,60.10
2019-01-15T14:19:43.744Z,60.40
2019-01-15T14:22:30.513Z,60.50
2019-01-15T14:25:18.268Z,61.10
2019-01-15T14:28:04.506Z,61.50
2019-01-15T14:31:05.506Z,61.80
2019-01-15T14:33:53.204Z,61.20
2019-01-15T14:36:46.015Z,61.30
2019-01-15T14:39:42.184Z,61.50
2019-01-15T14:42:28.168Z,61.60
2019-01-15T14:45:30.443Z,61.80
2019-01-15T14:48:17.170Z,61.70
2019-01-15T14:51:02.524Z,62.00
2019-01-15T14:53:49.887Z,61.70
2019-01-15T14:56:39.951Z,62.10
2019-01-15T14:59:39.343Z,62.20
2019-01-15T15:02:32.527Z,62.00
2019-01-15T15:05:38.014Z,62.70
2019-01-15T15:08:24.152Z,62.70
2019-01-15T15:11:20.829Z,62.70
2019-01-15T15:14:26.238Z,63.40
2019-01-15T15:17:37.847Z,63.10
2019-01-15T15:20:18.336Z,62.90
2019-01-15T15:23:20.765Z,63.20
2019-01-15T15:26:06.788Z,63.10
2019-01-15T15:28:57.386Z,63.60
2019-01-15T15:31:44.307Z,63.00
2019-01-15T15:34:22.677Z,63.30
2019-01-15T15:37:11.581Z,63.20
2019-01-15T15:39:58.054Z,63.10
2019-01-15T15:42:46.418Z,63.60
2019-01-15T15:45:42.543Z,63.60
2019-01-15T15:48:45.084Z,63.60
2019-01-15T15:51:35.231Z,63.30
2019-01-15T15:54:29.716Z,63.80
2019-01-15T15:57:36.367Z,63.60
2019-01-15T16:00:31.483Z,63.60
2019-01-15T16:03:17.600Z,64.20
2019-01-15T16:06:08.016Z,63.80
2019-01-15T16:08:52.536Z,64.00
2019-01-15T16:11:38.426Z,64.40
2019-01-15T16:14:26.988Z,64.10
2019-01-15T16:17:17.692Z,64.10
2019-01-15T16:20:00.721Z,64.30
2019-01-15T16:22:46.804Z,64.10
2019-01-15T16:25:36.180Z,64.20
2019-01-15T16:28:26.634Z,64.90
2019-01-15T16:31:11.734Z,64.70
2019-01-15T16:33:57.762Z,64.60
2019-01-15T16:36:38.510Z,65.00
2019-01-15T16:39:17.242Z,65.40
2019-01-15T16:41:53.598Z,65.60
2019-01-15T16:44:39.768Z,65.90
2019-01-15T16:47:29.957Z,66.20
2019-01-15T16:50:17.379Z,67.70
2019-01-15T16:53:03.332Z,68.40
2019-01-15T16:55:49.488Z,68.60
2019-01-15T16:58:31.170Z,67.70
2019-01-15T17:01:16.835Z,67.70
2019-01-15T17:04:07.265Z,67.70
2019-01-15T17:07:03.468Z,67.20
2019-01-15T17:09:56.885Z,67.30
2019-01-15T17:13:02.348Z,67.90
2019-01-15T17:15:48.273Z,67.80
2019-01-15T17:18:43.378Z,67.60
2019-01-15T17:21:39.629Z,67.90
2019-01-15T17:24:27.011Z,67.70
2019-01-15T17:27:04.532Z,67.90
2019-01-15T17:29:48.739Z,68.40
2019-01-15T17:32:31.002Z,67.70
2019-01-15T17:35:17.208Z,67.60
2019-01-15T17:38:07.737Z,67.90
2019-01-15T17:40:53.741Z,67.80
2019-01-15T17:43:39.090Z,67.80
2019-01-15T17:46:23.306Z,67.80
2019-01-15T17:49:21.003Z,67.80
2019-01-15T17:52:20.733Z,67.80
2019-01-15T17:55:06.561Z,67.80
2019-01-15T17:57:45.023Z,68.60
2019-01-15T18:00:41.369Z,68.90
2019-01-15T18:03:28.779Z,68.90
2019-01-15T18:06:22.072Z,68.90
2019-01-15T18:09:09.462Z,69.10
2019-01-15T18:11:55.303Z,69.80
2019-01-15T18:14:41.574Z,69.40
2019-01-15T18:18:02.622Z,69.70
2019-01-15T18:20:48.151Z,69.90
2019-01-15T18:23:30.129Z,70.00
2019-01-15T18:26:29.733Z,69.70
2019-01-15T18:29:33.992Z,70.10
2019-01-15T18:32:21.478Z,71.20
2019-01-15T18:35:07.689Z,69.90
2019-01-15T18:38:10.244Z,70.20
2019-01-15T18:40:56.545Z,69.60
2019-01-15T18:43:42.368Z,69.70
2019-01-15T18:46:28.221Z,69.90
2019-01-15T18:49:05.441Z,70.00
2019-01-15T18:51:51.699Z,70.60
2019-01-15T18:54:54.163Z,70.40
2019-01-15T18:57:39.966Z,70.80
2019-01-15T19:00:30.144Z,69.70
2019-01-15T19:03:17.607Z,69.70
2019-01-15T19:06:06.062Z,69.80
2019-01-15T19:08:52.102Z,70.40
2019-01-15T19:11:42.494Z,69.80
2019-01-15T19:14:27.534Z,69.70
2019-01-15T19:17:13.758Z,69.80
2019-01-15T19:19:58.124Z,69.40
2019-01-15T19:22:35.615Z,69.10
2019-01-15T19:25:27.175Z,69.20
2019-01-15T19:28:21.224Z,69.50
2019-01-15T19:31:12.728Z,70.00
2019-01-15T19:33:58.462Z,68.80
2019-01-15T19:36:49.514Z,69.90
2019-01-15T19:39:36.667Z,70.00
2019-01-15T19:42:21.801Z,70.00
2019-01-15T19:45:16.105Z,69.70
2019-01-15T19:48:28.075Z,68.50
2019-01-15T19:51:14.278Z,68.90
2019-01-15T19:54:14.487Z,69.20
2019-01-15T19:57:07.962Z,70.20
2019-01-15T20:00:07.696Z,69.30
2019-01-15T20:02:57.576Z,69.20
2019-01-15T20:05:44.351Z,69.30
2019-01-15T20:08:27.686Z,70.00
2019-01-15T20:11:18.999Z,70.00
2019-01-15T20:14:01.241Z,69.20
2019-01-15T20:16:41.642Z,69.30
2019-01-15T20:19:29.086Z,69.30
2019-01-15T20:22:22.484Z,69.70
2019-01-15T20:24:58.948Z,69.70
2019-01-15T20:27:42.383Z,69.80
2019-01-15T20:30:33.926Z,70.30
2019-01-15T20:33:24.230Z,70.00
2019-01-15T20:35:59.691Z,71.20
2019-01-15T20:38:46.757Z,71.40
2019-01-15T20:41:32.948Z,71.60
2019-01-15T20:44:18.739Z,71.90
2019-01-15T20:47:05.193Z,73.00
2019-01-15T20:49:52.605Z,72.50
2019-01-15T20:52:58.079Z,73.10
2019-01-15T20:55:51.367Z,73.20
2019-01-15T20:58:36.759Z,73.10
2019-01-15T21:01:22.749Z,73.40
2019-01-15T21:04:19.192Z,73.90
2019-01-15T21:07:10.956Z,74.20
2019-01-15T21:10:02.722Z,74.30
2019-01-15T21:12:55.975Z,73.90
2019-01-15T21:15:49.599Z,73.80
2019-01-15T21:18:39.862Z,74.00
2019-01-15T21:21:36.276Z,75.00
2019-01-15T21:24:23.311Z,75.20
2019-01-15T21:27:17.244Z,75.90
2019-01-15T21:30:04.600Z,76.00
2019-01-15T21:32:57.853Z,76.80
2019-01-15T21:35:45.318Z,76.80
2019-01-15T21:38:27.714Z,77.00
2019-01-15T21:41:15.119Z,77.20
2019-01-15T21:44:01.414Z,76.50
2019-01-15T21:47:04.186Z,76.50
2019-01-15T21:49:57.984Z,76.40
2019-01-15T21:52:47.836Z,76.40
2019-01-15T21:55:41.355Z,76.10
2019-01-15T21:58:19.359Z,76.80
2019-01-15T22:01:09.039Z,76.70
2019-01-15T22:03:56.171Z,77.10
2019-01-15T22:07:01.936Z,76.40
2019-01-15T22:10:07.425Z,77.00
2019-01-15T22:12:54.622Z,77.00
2019-01-15T22:15:51.442Z,76.50
2019-01-15T22:18:37.880Z,76.40
2019-01-15T22:21:22.900Z,76.00
2019-01-15T22:24:24.657Z,76.20
2019-01-15T22:27:10.605Z,75.70
2019-01-15T22:30:10.348Z,75.40
2019-01-15T22:33:21.476Z,75.80
2019-01-15T22:36:17.858Z,75.60
2019-01-15T22:39:20.384Z,75.60
2019-01-15T22:42:06.326Z,75.70
2019-01-15T22:45:06.389Z,75.70
2019-01-15T22:48:12.111Z,76.00
2019-01-15T22:51:02.519Z,76.20
2019-01-15T22:53:55.654Z,76.30
2019-01-15T22:56:35.362Z,76.30
2019-01-15T22:59:25.512Z,75.90
2019-01-15T23:02:12.943Z,76.10
2019-01-15T23:05:04.034Z,76.20
2019-01-15T23:08:09.782Z,76.10
2019-01-15T23:10:57.156Z,77.40
2019-01-15T23:13:44.572Z,78.40
2019-01-15T23:16:40.952Z,78.10
2019-01-15T23:19:34.405Z,79.50
2019-01-15T23:22:30.727Z,80.20
2019-01-15T23:25:16.734Z,80.90
2019-01-15T23:28:09.211Z,81.60
2019-01-15T23:30:55.086Z,81.00
2019-01-15T23:33:41.756Z,81.60
2019-01-15T23:36:38.235Z,81.00
2019-01-15T23:39:41.803Z,80.80
2019-01-15T23:42:21.628Z,80.40
2019-01-15T23:45:00.176Z,80.00
2019-01-15T23:47:50.510Z,79.10
2019-01-15T23:50:37.940Z,78.90
2019-01-15T23:53:28.113Z,79.20
2019-01-15T23:56:14.135Z,78.00
2019-01-15T23:59:13.803Z,78.00
